Ambler, PA

11:57 PM EST on November 22, 2014 (GMT -0500)
Quakertown | Change Station
CLOSE
Current Station
Airport
Location: Quakertown,
Elevation: 525 ft
Nearby Weather Stations

Elev 525 ft 40.44 °N, 75.38 °W | Updated 22 minutes ago

Overcast
Overcast
39 °F
Feels Like 36 °F
N
5
Wind Variable Wind from SW

Today
High -- | Low -- °F
--% Chance of Precip.
Yesterday
High -- | Low -- °F
Precip. -- in
6:54 AM 4:39 PM
New Moon, 1% visible
Pressure 30.23 in
Visibility 10.0 miles
Clouds Clear
Windchill 36 °F
Dew Point 21 °F
Humidity 49%
Rainfall 0.00 in
Snow Depth Not available.
UV 0 out of 12
Pollen .10 out of 12
Air Quality Not available.
Flu Activity Not available.
METAR KUKT 230435Z AUTO 22004KT 10SM CLR 04/M06 A3023 RMK AO1

More Conditions Fewer Conditions

Pressure 30.23 in
Visibility 10.0 miles
Clouds Clear
Windchill 36 °F
Dew Point 21 °F
Humidity 49%
Rainfall 0.00 in
Snow Depth Not available.
UV 0 out of 12
Pollen .10 out of 12
Air Quality Not available.
Flu Activity Not available.
METAR KUKT 230435Z AUTO 22004KT 10SM CLR 04/M06 A3023 RMK AO1

More Conditions Fewer Conditions

10-Day Weather Forecast

Almanac

Astronomy

Nov. 22, 2014 Rise Set
Actual Time
Civil Twilight
Nautical Twilight
Astronomical Twilight
Moon
Length of Visible Light
Length of Day
Tomorrow will be .
, % of the Moon is Illuminated

Today's Extremes

State Highs State Lows

Community

WunderPhotos

Upload Photos

1,773,003 photos uploaded!

WunderBlogs® & News

Nearby

Air Quality

  Air Quality AQ Index Pollutant
Not available.

Snow Depth

Station Depth Elevation

Earthquake Activity

City Distance Mag. Time & Date
Minimum magnitude displayed is 2.5.

Coastal Water Temperatures

Place Temperature

Nearby Weather Stations